Nearby METAR Reports

 

KKLS - Kelso Longveiw, Washington, USA
Distance from station: ESE 7mi, 11km
Updated: Thu, 13-Dec-2018 1:56am PST
Overcast
Overcast
 Wind from SSE
Wind: SSE 12 mph , 19 km/h
Temperature: 48°F , 9°C
Wind Chill: 43°F , 6°C
Dew Point: 39°F , 4°C
Humidity: 71%
Barometer: 1022.7 hPa
Clouds: Overcast
Visibility: 10 miles , 16 km
Cloud details: Overcast 8000 ft
2018/12/13 09:56 KKLS 130956Z AUTO 15010KT 10SM OVC080 09/04 A3020 RMK AO2 SLP231 T00890039
KSPB - Scappoose, Oregon, USA
Distance from station: SSE 29mi, 46km
Updated: Thu, 13-Dec-2018 1:53am PST
Overcast
Overcast
 Wind from SSE
Wind: SSE 6 mph , 9 km/h
Temperature: 48°F , 9°C
Wind Chill: 45°F , 7°C
Dew Point: 39°F , 4°C
Humidity: 71%
Barometer: 1023 hPa
Clouds: Overcast
Visibility: 10 miles , 16 km
Cloud details: Overcast 10000 ft
2018/12/13 09:53 KSPB 130953Z AUTO 16005KT 10SM OVC100 09/04 A3021 RMK AO2 SLP230 T00890044
 
KCLS - Chehalis Central, Washington, USA
Distance from station: N 36mi, 58km
Updated: Thu, 13-Dec-2018 2:35am PST
Overcast
Overcast
 Wind from SSW
Wind: SSW 8 mph , 13 km/h, Gust: 16 mph , 26 km/h
Temperature: 45°F , 7°C
Wind Chill: 41°F , 5°C
Dew Point: 43°F , 6°C
Humidity: 93%
Barometer: 1020 hPa
Clouds: Overcast
Visibility: 10 miles , 16 km
Cloud details: Overcast 3300 ft
2018/12/13 10:35 KCLS 131035Z AUTO 20007G14KT 160V220 10SM OVC033 07/06 A3012 RMK AO2
KAST - Astoria, Oregon, USA
Distance from station: W 41mi, 66km
Updated: Thu, 13-Dec-2018 2:10am PST
Light rain, Overcast
Light rain, Overcast
 Wind from S
Wind: S 24 mph , 39 km/h, Gust: 39 mph , 63 km/h
Temperature: 52°F , 11°C
Dew Point: 46°F , 8°C
Humidity: 82%
Barometer: 1019.3 hPa
Summary: Light rain
Clouds: Overcast
Visibility: 10 miles , 16 km
Cloud details: Few Clouds 2300 ft
Overcast 3200 ft
2018/12/13 10:10 KAST 131010Z AUTO 18021G34KT 10SM -RA FEW023 OVC032 11/08 A3010 RMK AO2 PK WND 19034/1009 RAB00 P0000 T01060078
 
KVUO - Vancouver, Washington, USA
Distance from station: SSE 42mi, 68km
Updated: Thu, 13-Dec-2018 1:53am PST
Overcast
Overcast
 Wind from SE
Wind: SE 5 mph , 7 km/h
Temperature: 45°F , 7°C
Wind Chill: 42°F , 6°C
Dew Point: 39°F , 4°C
Humidity: 81%
Barometer: 1024 hPa
Clouds: Overcast
Visibility: 10 miles , 16 km
Cloud details: Overcast 10000 ft
2018/12/13 09:53 KVUO 130953Z AUTO 13004KT 10SM OVC100 07/04 A3024 RMK AO2 SLP239 T00720039
KHIO - Hillsboro/Portld, Oregon, USA
Distance from station: S 43mi, 69km
Updated: Thu, 13-Dec-2018 1:53am PST
Overcast
Overcast
 Wind from SSE
Wind: SSE 8 mph , 13 km/h
Temperature: 45°F , 7°C
Wind Chill: 41°F , 5°C
Dew Point: 39°F , 4°C
Humidity: 81%
Barometer: 1023.4 hPa
Clouds: Overcast
Visibility: 10 miles , 16 km
Cloud details: Overcast 9500 ft
2018/12/13 09:53 KHIO 130953Z AUTO 15007KT 10SM OVC095 07/04 A3022 RMK AO2 SLP233 T00720044
 
KPDX - Portland, Oregon, USA
Distance from station: SSE 44mi, 70km
Updated: Thu, 13-Dec-2018 1:53am PST
Overcast
Overcast
 Wind from SSE
Wind: SSE 8 mph , 13 km/h
Temperature: 45°F , 7°C
Wind Chill: 41°F , 5°C
Dew Point: 41°F , 5°C
Humidity: 87%
Barometer: 1024 hPa
Clouds: Overcast
Visibility: 10 miles , 16 km
Cloud details: Overcast 10000 ft
2018/12/13 09:53 KPDX 130953Z 15007KT 10SM OVC100 07/05 A3024 RMK AO2 SLP241 T00720050